createdAt,value
2022-08-17T00:01:53.150Z,20.8
2022-08-17T00:03:51.419Z,20.9
2022-08-17T00:05:51.434Z,21.0
2022-08-17T00:07:51.504Z,21.0
2022-08-17T00:09:51.409Z,21.2
2022-08-17T00:12:41.357Z,21.1
2022-08-17T00:13:51.412Z,21.1
2022-08-17T00:15:51.438Z,21.1
2022-08-17T00:17:51.432Z,21.4
2022-08-17T00:19:51.438Z,21.1
2022-08-17T00:22:29.804Z,21.5
2022-08-17T00:23:51.410Z,21.5
2022-08-17T00:25:51.560Z,21.2
2022-08-17T00:27:51.426Z,21.0
2022-08-17T00:29:51.430Z,21.1
2022-08-17T00:31:51.429Z,21.1
2022-08-17T00:33:51.442Z,21.2
2022-08-17T00:36:21.436Z,21.2
2022-08-17T00:38:21.450Z,21.0
2022-08-17T00:40:21.459Z,20.8
2022-08-17T00:42:21.454Z,20.8
2022-08-17T00:44:21.456Z,20.8
2022-08-17T00:46:21.521Z,21.2
2022-08-17T00:48:28.994Z,21.1
2022-08-17T00:50:21.450Z,21.0
2022-08-17T00:52:21.445Z,21.1
2022-08-17T00:54:21.463Z,21.3
2022-08-17T00:56:21.531Z,21.2
2022-08-17T00:58:28.717Z,21.3
2022-08-17T01:00:21.465Z,20.9
2022-08-17T01:02:21.547Z,20.8
2022-08-17T01:04:21.444Z,20.9
2022-08-17T01:06:21.541Z,21.0
2022-08-17T01:08:21.469Z,21.1
2022-08-17T01:10:58.995Z,21.0
2022-08-17T01:12:21.465Z,20.8
2022-08-17T01:14:21.578Z,20.9
2022-08-17T01:16:21.469Z,21.0
2022-08-17T01:18:21.475Z,20.6
2022-08-17T01:20:21.486Z,20.9
2022-08-17T01:22:21.531Z,20.7
2022-08-17T01:24:21.543Z,20.8
2022-08-17T01:28:52.317Z,20.8
2022-08-17T01:30:57.791Z,20.6
2022-08-17T01:32:21.485Z,20.6
2022-08-17T01:34:21.549Z,20.6
2022-08-17T01:38:29.727Z,20.9
2022-08-17T01:40:29.732Z,21.2
2022-08-17T01:42:29.733Z,20.9
2022-08-17T01:44:29.739Z,20.9
2022-08-17T01:46:29.802Z,20.5
2022-08-17T01:48:29.731Z,20.5
2022-08-17T01:50:29.731Z,20.3
2022-08-17T01:52:29.741Z,20.3
2022-08-17T01:54:29.737Z,20.1
2022-08-17T01:56:29.731Z,20.0
2022-08-17T01:58:29.755Z,20.0
2022-08-17T02:00:59.665Z,20.0
2022-08-17T02:02:30.593Z,20.3
2022-08-17T02:04:29.863Z,20.3
2022-08-17T02:06:29.768Z,20.2
2022-08-17T02:08:37.213Z,20.3
2022-08-17T02:10:33.924Z,20.3
2022-08-17T02:12:38.043Z,20.4
2022-08-17T02:14:29.753Z,20.4
2022-08-17T02:16:29.768Z,20.4
2022-08-17T02:18:29.812Z,20.8
2022-08-17T02:20:42.530Z,20.6
2022-08-17T02:22:29.764Z,20.7
2022-08-17T02:24:59.386Z,20.5
2022-08-17T02:26:29.754Z,20.6
2022-08-17T02:28:29.838Z,20.7
2022-08-17T02:31:01.765Z,20.7
2022-08-17T02:32:29.769Z,20.5
2022-08-17T02:34:29.779Z,20.5
2022-08-17T02:36:29.771Z,20.3
2022-08-17T02:38:29.783Z,20.2
2022-08-17T02:40:35.814Z,19.8
2022-08-17T02:42:29.889Z,19.9
2022-08-17T02:44:38.923Z,19.9
2022-08-17T02:46:29.770Z,20.1
2022-08-17T02:48:31.157Z,20.0
2022-08-17T02:50:29.782Z,20.3
2022-08-17T02:52:41.946Z,20.2
2022-08-17T02:54:39.908Z,20.2
2022-08-17T02:56:29.790Z,20.3
2022-08-17T02:58:35.131Z,20.3
2022-08-17T03:00:29.800Z,20.4
2022-08-17T03:02:29.787Z,20.3
2022-08-17T03:04:29.824Z,19.9
2022-08-17T03:06:29.800Z,19.9
2022-08-17T03:08:59.813Z,19.7
2022-08-17T03:10:59.809Z,19.6
2022-08-17T03:12:59.803Z,19.6
2022-08-17T03:14:59.805Z,19.7
2022-08-17T03:16:59.817Z,19.5
2022-08-17T03:18:59.814Z,19.4
2022-08-17T03:20:59.812Z,19.4
2022-08-17T03:23:02.673Z,19.2
2022-08-17T03:24:59.830Z,19.1
2022-08-17T03:26:59.823Z,19.5
2022-08-17T03:28:59.812Z,19.5
2022-08-17T03:30:59.807Z,19.7
2022-08-17T03:32:59.797Z,19.7
2022-08-17T03:34:59.815Z,19.9
2022-08-17T03:36:59.822Z,20.2
2022-08-17T03:38:59.819Z,20.4
2022-08-17T03:41:00.021Z,20.5
2022-08-17T03:42:59.823Z,20.8
2022-08-17T03:44:59.847Z,20.9
2022-08-17T03:46:59.827Z,21.0
2022-08-17T03:48:59.835Z,20.9
2022-08-17T03:50:59.826Z,21.0
2022-08-17T03:52:59.952Z,21.0
2022-08-17T03:54:59.853Z,21.1
2022-08-17T03:56:59.852Z,21.0
2022-08-17T03:58:59.838Z,21.1
2022-08-17T04:00:59.894Z,21.0
2022-08-17T04:02:59.871Z,21.2
2022-08-17T04:04:59.839Z,21.4
2022-08-17T04:06:59.829Z,21.6
2022-08-17T04:08:59.822Z,21.4
2022-08-17T04:10:59.829Z,21.5
2022-08-17T04:12:59.860Z,21.6
2022-08-17T04:14:59.848Z,21.6
2022-08-17T04:16:59.846Z,21.7
2022-08-17T04:18:59.842Z,21.6
2022-08-17T04:20:59.844Z,21.9
2022-08-17T04:22:59.857Z,22.0
2022-08-17T04:24:59.962Z,22.0
2022-08-17T04:26:59.850Z,21.7
2022-08-17T04:28:59.866Z,21.4
2022-08-17T04:30:59.847Z,21.1
2022-08-17T04:33:06.496Z,21.5
2022-08-17T04:34:59.849Z,21.2
2022-08-17T04:36:59.852Z,20.8
2022-08-17T04:38:59.857Z,21.0
2022-08-17T04:40:59.882Z,21.3
2022-08-17T04:43:00.884Z,21.0
2022-08-17T04:44:59.879Z,20.8
2022-08-17T04:46:59.853Z,20.5
2022-08-17T04:48:59.889Z,20.6
2022-08-17T04:50:59.904Z,20.5
2022-08-17T04:53:00.181Z,20.5
2022-08-17T04:54:59.875Z,20.6
2022-08-17T04:56:59.869Z,20.7
2022-08-17T04:58:59.878Z,20.4
2022-08-17T05:00:59.942Z,20.4
2022-08-17T05:02:59.872Z,20.1
2022-08-17T05:04:59.876Z,20.0
2022-08-17T05:06:59.899Z,19.8
2022-08-17T05:08:59.904Z,19.9
2022-08-17T05:11:29.887Z,19.9
2022-08-17T05:13:29.895Z,19.5
2022-08-17T05:15:33.223Z,19.5
2022-08-17T05:17:29.884Z,19.4
2022-08-17T05:19:29.894Z,19.5
2022-08-17T05:21:29.909Z,19.3
2022-08-17T05:23:41.657Z,19.0
2022-08-17T05:25:29.934Z,19.1
2022-08-17T05:27:35.220Z,19.3
2022-08-17T05:29:35.098Z,19.3
2022-08-17T05:31:29.898Z,19.4
2022-08-17T05:33:29.911Z,19.1
2022-08-17T05:35:29.924Z,19.2
2022-08-17T05:37:29.898Z,19.3
2022-08-17T05:39:29.943Z,19.1
2022-08-17T05:41:29.911Z,18.8
2022-08-17T05:43:29.911Z,19.0
2022-08-17T05:45:32.675Z,19.1
2022-08-17T05:47:29.940Z,19.2
2022-08-17T05:49:29.918Z,19.2
2022-08-17T05:51:29.927Z,19.2
2022-08-17T05:53:29.910Z,19.2
2022-08-17T05:55:29.925Z,19.2
2022-08-17T05:57:29.925Z,19.3
2022-08-17T05:59:29.909Z,19.5
2022-08-17T06:01:29.997Z,19.4
2022-08-17T06:03:29.934Z,19.7
2022-08-17T06:05:29.931Z,19.8
2022-08-17T06:07:29.923Z,20.0
2022-08-17T06:09:33.627Z,20.1
2022-08-17T06:11:29.951Z,20.1
2022-08-17T06:13:29.926Z,20.5
2022-08-17T06:15:29.925Z,20.6
2022-08-17T06:17:29.927Z,20.4
2022-08-17T06:19:29.957Z,20.4
2022-08-17T06:21:30.438Z,20.4
2022-08-17T06:23:30.089Z,20.6
2022-08-17T06:25:29.947Z,20.8
2022-08-17T06:27:29.942Z,20.7
2022-08-17T06:29:29.938Z,20.8
2022-08-17T06:31:29.965Z,20.9
2022-08-17T06:33:29.953Z,21.0
2022-08-17T06:35:32.058Z,20.8
2022-08-17T06:37:29.961Z,20.8
2022-08-17T06:39:29.991Z,20.8
2022-08-17T06:41:29.951Z,20.8
2022-08-17T06:43:29.955Z,20.6
2022-08-17T06:45:29.951Z,20.5
2022-08-17T06:47:29.985Z,20.7
2022-08-17T06:49:29.961Z,20.6
2022-08-17T06:51:29.946Z,20.5
2022-08-17T06:53:30.159Z,20.5
2022-08-17T06:55:33.182Z,20.5
2022-08-17T06:57:29.984Z,20.3
2022-08-17T06:59:54.495Z,20.2
2022-08-17T07:01:29.987Z,20.3
2022-08-17T07:03:30.241Z,20.3
2022-08-17T07:05:29.983Z,20.0
2022-08-17T07:07:32.692Z,19.7
2022-08-17T07:09:29.989Z,19.5
2022-08-17T07:11:59.967Z,19.2
2022-08-17T07:13:59.980Z,19.1
2022-08-17T07:15:59.985Z,19.2
2022-08-17T07:18:00.214Z,19.1
2022-08-17T07:19:59.983Z,19.2
2022-08-17T07:21:59.995Z,19.3
2022-08-17T07:24:00.015Z,19.0
2022-08-17T07:26:00.022Z,19.1
2022-08-17T07:29:38.269Z,19.5
2022-08-17T07:31:38.223Z,19.7
2022-08-17T07:33:38.240Z,19.5
2022-08-17T07:35:40.862Z,19.6
2022-08-17T07:37:38.220Z,19.8
2022-08-17T07:39:59.669Z,19.9
2022-08-17T07:41:53.207Z,19.9
2022-08-17T07:44:08.240Z,19.8
2022-08-17T07:46:08.230Z,19.7
2022-08-17T07:48:08.276Z,19.7
2022-08-17T07:50:08.272Z,19.5
2022-08-17T07:52:47.456Z,19.8
2022-08-17T07:54:14.448Z,19.8
2022-08-17T07:56:08.254Z,19.9
2022-08-17T07:58:08.249Z,20.0
2022-08-17T08:00:08.260Z,20.2
2022-08-17T08:02:08.309Z,20.1
2022-08-17T08:04:08.484Z,20.3
2022-08-17T08:06:08.275Z,20.8
2022-08-17T08:08:08.287Z,21.1
2022-08-17T08:10:08.267Z,21.2
2022-08-17T08:12:08.357Z,21.5
2022-08-17T08:14:08.268Z,21.7
2022-08-17T08:16:08.286Z,21.8
2022-08-17T08:18:09.166Z,22.0
2022-08-17T08:20:34.982Z,21.8
2022-08-17T08:22:08.265Z,21.8
2022-08-17T08:24:08.269Z,21.6
2022-08-17T08:26:08.279Z,21.6
2022-08-17T08:28:08.284Z,21.0
2022-08-17T08:30:08.263Z,20.9
2022-08-17T08:32:08.301Z,20.9
2022-08-17T08:34:08.291Z,20.9
2022-08-17T08:36:08.291Z,21.0
2022-08-17T08:38:08.320Z,21.0
2022-08-17T08:40:08.391Z,21.1
2022-08-17T08:42:08.283Z,21.2
2022-08-17T08:44:08.282Z,21.2
2022-08-17T08:46:08.291Z,21.2
2022-08-17T08:48:23.119Z,21.3
2022-08-17T08:50:08.293Z,21.4
2022-08-17T08:52:08.304Z,21.3
2022-08-17T08:54:08.321Z,21.2
2022-08-17T08:56:08.309Z,21.0
2022-08-17T08:58:08.338Z,20.8
2022-08-17T09:00:08.320Z,20.9
2022-08-17T09:02:08.302Z,20.9
2022-08-17T09:04:23.411Z,20.7
2022-08-17T09:06:37.712Z,20.5
2022-08-17T09:08:08.337Z,20.1
2022-08-17T09:10:08.345Z,19.9
2022-08-17T09:12:08.331Z,19.8
2022-08-17T09:14:21.289Z,19.5
2022-08-17T09:16:08.327Z,19.3
2022-08-17T09:19:02.354Z,19.3
2022-08-17T09:20:08.317Z,19.2
2022-08-17T09:22:08.324Z,19.1
2022-08-17T09:24:08.335Z,19.1
2022-08-17T09:26:08.329Z,19.3
2022-08-17T09:28:08.344Z,19.5
2022-08-17T09:30:08.317Z,19.6
2022-08-17T09:32:08.327Z,19.8
2022-08-17T09:34:08.339Z,19.8
2022-08-17T09:36:08.324Z,19.7
2022-08-17T09:38:08.378Z,19.8
2022-08-17T09:40:08.411Z,19.5
2022-08-17T09:42:08.341Z,19.5
2022-08-17T09:44:22.942Z,19.5
2022-08-17T09:46:08.333Z,19.4
2022-08-17T09:48:08.389Z,19.4
2022-08-17T09:50:55.349Z,19.7
2022-08-17T09:52:38.355Z,19.5
2022-08-17T09:54:39.953Z,19.7
2022-08-17T09:56:42.324Z,19.7
2022-08-17T09:58:38.454Z,19.8
2022-08-17T10:00:38.355Z,19.7
2022-08-17T10:02:38.370Z,19.7
2022-08-17T10:04:38.388Z,19.7
2022-08-17T10:06:38.374Z,19.7
2022-08-17T10:08:38.379Z,19.8
2022-08-17T10:10:38.392Z,20.1
2022-08-17T10:12:38.374Z,20.3
2022-08-17T10:14:43.693Z,20.3
2022-08-17T10:16:38.381Z,20.1
2022-08-17T10:18:38.372Z,20.0
2022-08-17T10:20:38.373Z,20.1
2022-08-17T10:22:38.396Z,20.0
2022-08-17T10:24:38.395Z,20.5
2022-08-17T10:26:40.305Z,20.3
2022-08-17T10:28:38.390Z,20.4
2022-08-17T10:30:38.411Z,20.5
2022-08-17T10:32:38.408Z,20.3
2022-08-17T10:34:41.232Z,20.1
2022-08-17T10:36:38.495Z,20.0
2022-08-17T10:38:38.397Z,20.1
2022-08-17T10:40:38.402Z,20.1
2022-08-17T10:42:38.396Z,20.1
2022-08-17T10:44:41.065Z,20.2
2022-08-17T10:46:38.426Z,20.4
2022-08-17T10:48:38.408Z,20.2
2022-08-17T10:50:38.404Z,20.0
2022-08-17T10:52:38.442Z,20.0
2022-08-17T10:54:38.400Z,20.1
2022-08-17T10:56:38.410Z,20.2
2022-08-17T10:58:38.423Z,20.0
2022-08-17T11:00:38.475Z,19.9
2022-08-17T11:02:38.421Z,19.9
2022-08-17T11:04:38.407Z,19.9
2022-08-17T11:06:38.426Z,19.8
2022-08-17T11:08:38.417Z,20.0
2022-08-17T11:10:38.434Z,19.7
2022-08-17T11:12:38.431Z,19.7
2022-08-17T11:14:38.421Z,19.6
2022-08-17T11:16:38.456Z,20.0
2022-08-17T11:18:38.434Z,20.1
2022-08-17T11:20:38.455Z,20.3
2022-08-17T11:22:38.427Z,20.3
2022-08-17T11:24:38.447Z,20.3
2022-08-17T11:26:38.443Z,20.3
2022-08-17T11:28:38.450Z,20.2
2022-08-17T11:30:38.485Z,20.1
2022-08-17T11:32:38.480Z,20.3
2022-08-17T11:34:38.454Z,20.4
2022-08-17T11:36:38.470Z,20.2
2022-08-17T11:38:38.449Z,20.2
2022-08-17T11:40:38.469Z,20.4
2022-08-17T11:42:38.452Z,20.4
2022-08-17T11:44:38.514Z,20.4
2022-08-17T11:46:38.475Z,20.2
2022-08-17T11:48:38.455Z,20.2
2022-08-17T11:50:38.473Z,20.2
2022-08-17T11:52:38.462Z,20.2
2022-08-17T11:54:38.457Z,20.1
2022-08-17T11:56:38.522Z,19.9
2022-08-17T11:59:08.456Z,20.1
2022-08-17T12:01:08.483Z,20.0
2022-08-17T12:03:08.518Z,19.7
2022-08-17T12:05:09.694Z,19.9
2022-08-17T12:07:08.474Z,19.8
2022-08-17T12:09:08.472Z,19.8
2022-08-17T12:11:08.497Z,19.9
2022-08-17T12:13:08.465Z,19.7
2022-08-17T12:15:11.442Z,19.7
2022-08-17T12:17:08.502Z,19.3
2022-08-17T12:19:08.500Z,19.5
2022-08-17T12:21:08.477Z,19.3
2022-08-17T12:23:08.492Z,19.3
2022-08-17T12:25:08.503Z,19.6
2022-08-17T12:27:08.526Z,19.5
2022-08-17T12:29:09.418Z,19.3
2022-08-17T12:31:08.507Z,19.1
2022-08-17T12:33:08.514Z,19.2
2022-08-17T12:35:08.490Z,19.4
2022-08-17T12:37:08.513Z,19.5
2022-08-17T12:39:14.330Z,19.3
2022-08-17T12:41:08.518Z,19.0
2022-08-17T12:43:08.653Z,19.1
2022-08-17T12:45:08.505Z,19.3
2022-08-17T12:47:08.557Z,19.6
2022-08-17T12:49:08.520Z,19.7
2022-08-17T12:51:08.523Z,20.0
2022-08-17T12:53:08.538Z,20.0
2022-08-17T12:55:08.524Z,19.8
2022-08-17T12:57:08.539Z,19.8
2022-08-17T12:59:08.514Z,20.0
2022-08-17T13:01:08.531Z,20.1
2022-08-17T13:03:08.534Z,20.5
2022-08-17T13:05:08.511Z,20.6
2022-08-17T13:07:08.539Z,20.8
2022-08-17T13:09:08.534Z,21.0
2022-08-17T13:11:08.543Z,21.0
2022-08-17T13:13:08.524Z,20.9
2022-08-17T13:15:08.521Z,20.9
2022-08-17T13:17:13.181Z,21.0
2022-08-17T13:19:08.542Z,20.8
2022-08-17T13:21:08.585Z,20.9
2022-08-17T13:23:12.458Z,20.6
2022-08-17T13:25:08.554Z,20.3
2022-08-17T13:27:08.747Z,20.0
2022-08-17T13:29:08.548Z,20.0
2022-08-17T13:31:08.548Z,20.0
2022-08-17T13:33:08.545Z,19.9
2022-08-17T13:35:14.339Z,19.8
2022-08-17T13:37:08.560Z,19.5
2022-08-17T13:39:08.566Z,19.5
2022-08-17T13:41:08.631Z,19.8
2022-08-17T13:43:08.574Z,19.7
2022-08-17T13:45:34.875Z,19.6
2022-08-17T13:49:41.987Z,19.5
2022-08-17T13:51:30.514Z,19.2
2022-08-17T13:53:31.172Z,19.3
2022-08-17T13:55:30.513Z,19.4
2022-08-17T13:57:30.499Z,19.5
2022-08-17T13:59:53.380Z,19.1
2022-08-17T14:01:30.567Z,19.1
2022-08-17T14:03:30.539Z,18.9
2022-08-17T14:05:30.508Z,18.7
2022-08-17T14:07:30.622Z,18.4
2022-08-17T14:09:34.871Z,18.4
2022-08-17T14:11:30.517Z,18.2
2022-08-17T14:13:30.526Z,18.3
2022-08-17T14:15:54.757Z,18.4
2022-08-17T14:17:32.604Z,18.4
2022-08-17T14:19:30.565Z,18.4
2022-08-17T14:21:30.565Z,18.7
2022-08-17T14:23:30.521Z,18.8
2022-08-17T14:25:30.556Z,19.0
2022-08-17T14:27:30.629Z,19.3
2022-08-17T14:29:30.609Z,19.5
2022-08-17T14:31:35.387Z,19.5
2022-08-17T14:33:30.540Z,19.8
2022-08-17T14:35:30.544Z,19.8
2022-08-17T14:37:30.566Z,19.8
2022-08-17T14:39:30.601Z,19.8
2022-08-17T14:41:30.553Z,19.8
2022-08-17T14:43:30.547Z,19.8
2022-08-17T14:45:32.647Z,19.5
2022-08-17T14:47:30.554Z,19.3
2022-08-17T14:49:30.562Z,19.3
2022-08-17T14:51:30.549Z,19.4
2022-08-17T14:53:30.564Z,19.4
2022-08-17T14:55:30.578Z,19.5
2022-08-17T14:57:34.231Z,19.5
2022-08-17T14:59:30.574Z,19.6
2022-08-17T15:01:30.612Z,19.8
2022-08-17T15:03:30.571Z,19.7
2022-08-17T15:05:30.592Z,19.7
2022-08-17T15:07:31.281Z,20.1
2022-08-17T15:09:30.600Z,19.8
2022-08-17T15:11:30.593Z,19.7
2022-08-17T15:13:30.603Z,19.8
2022-08-17T15:15:30.587Z,19.9
2022-08-17T15:17:44.552Z,20.1
2022-08-17T15:19:30.587Z,20.2
2022-08-17T15:21:30.605Z,20.3
2022-08-17T15:23:30.597Z,20.2
2022-08-17T15:25:30.617Z,20.0
2022-08-17T15:27:32.661Z,20.2
2022-08-17T15:29:30.589Z,20.1
2022-08-17T15:31:32.337Z,20.0
2022-08-17T15:33:30.594Z,19.6
2022-08-17T15:35:30.653Z,19.8
2022-08-17T15:38:04.697Z,20.1
2022-08-17T15:40:00.821Z,20.1
2022-08-17T15:42:00.701Z,20.2
2022-08-17T15:44:00.619Z,20.4
2022-08-17T15:46:00.694Z,20.6
2022-08-17T15:48:00.625Z,20.5
2022-08-17T15:50:00.682Z,20.6
2022-08-17T15:52:00.611Z,20.7
2022-08-17T15:54:04.508Z,20.8
2022-08-17T15:56:00.648Z,20.8
2022-08-17T15:58:00.616Z,20.8
2022-08-17T16:00:00.754Z,21.1
2022-08-17T16:03:01.411Z,21.1
2022-08-17T16:04:07.286Z,21.5
2022-08-17T16:06:00.691Z,21.3
2022-08-17T16:08:00.629Z,21.4
2022-08-17T16:10:00.631Z,21.9
2022-08-17T16:12:00.648Z,22.0
2022-08-17T16:14:00.641Z,21.8
2022-08-17T16:16:00.635Z,21.8
2022-08-17T16:18:00.658Z,21.7
2022-08-17T16:20:00.698Z,21.5
2022-08-17T16:22:00.636Z,21.2
2022-08-17T16:24:00.658Z,21.2
2022-08-17T16:26:00.660Z,21.2
2022-08-17T16:28:00.672Z,20.7
2022-08-17T16:30:00.659Z,20.9
2022-08-17T16:32:00.653Z,21.1
2022-08-17T16:34:15.939Z,21.0
2022-08-17T16:36:00.654Z,20.8
2022-08-17T16:38:00.673Z,20.4
2022-08-17T16:40:00.741Z,20.7
2022-08-17T16:42:00.760Z,20.8
2022-08-17T16:44:00.690Z,20.9
2022-08-17T16:46:00.655Z,20.9
2022-08-17T16:48:00.671Z,20.9
2022-08-17T16:50:00.661Z,20.9
2022-08-17T16:52:00.662Z,20.8
2022-08-17T16:54:00.670Z,20.5
2022-08-17T16:56:00.664Z,20.9
2022-08-17T16:58:00.654Z,20.8
2022-08-17T17:00:00.666Z,20.4
2022-08-17T17:02:00.692Z,20.4
2022-08-17T17:04:00.708Z,20.4
2022-08-17T17:06:00.677Z,20.5
2022-08-17T17:08:00.674Z,20.3
2022-08-17T17:10:00.708Z,19.9
2022-08-17T17:12:00.690Z,19.8
2022-08-17T17:14:00.696Z,20.0
2022-08-17T17:16:00.692Z,19.9
2022-08-17T17:18:00.703Z,19.7
2022-08-17T17:20:00.712Z,19.9
2022-08-17T17:22:00.699Z,20.0
2022-08-17T17:24:00.764Z,20.0
2022-08-17T17:26:00.694Z,20.1
2022-08-17T17:28:00.697Z,20.1
2022-08-17T17:30:00.729Z,20.2
2022-08-17T17:32:00.723Z,20.1
2022-08-17T17:34:00.719Z,20.3
2022-08-17T17:36:00.701Z,20.3
2022-08-17T17:38:00.714Z,20.7
2022-08-17T17:40:00.819Z,20.5
2022-08-17T17:42:00.710Z,20.3
2022-08-17T17:44:30.726Z,20.5
2022-08-17T17:46:30.715Z,20.4
2022-08-17T17:48:30.702Z,20.4
2022-08-17T17:50:30.742Z,20.3
2022-08-17T17:52:30.729Z,20.4
2022-08-17T17:54:30.732Z,20.5
2022-08-17T17:56:43.915Z,20.0
2022-08-17T17:58:30.729Z,19.8
2022-08-17T18:00:30.760Z,20.0
2022-08-17T18:02:30.713Z,19.9
2022-08-17T18:04:30.729Z,20.1
2022-08-17T18:06:30.759Z,19.8
2022-08-17T18:08:33.966Z,20.1
2022-08-17T18:10:31.754Z,20.3
2022-08-17T18:12:30.752Z,20.3
2022-08-17T18:14:30.730Z,20.4
2022-08-17T18:16:31.992Z,20.4
2022-08-17T18:18:30.763Z,20.5
2022-08-17T18:20:32.386Z,20.2
2022-08-17T18:22:30.743Z,20.3
2022-08-17T18:24:30.741Z,20.3
2022-08-17T18:26:30.770Z,20.4
2022-08-17T18:28:30.756Z,20.6
2022-08-17T18:30:30.743Z,20.8
2022-08-17T18:32:30.754Z,20.9
2022-08-17T18:34:46.639Z,21.0
2022-08-17T18:36:30.780Z,21.1
2022-08-17T18:38:30.778Z,21.0
2022-08-17T18:40:30.774Z,21.2
2022-08-17T18:42:30.773Z,21.3
2022-08-17T18:44:30.771Z,20.9
2022-08-17T18:46:30.789Z,21.0
2022-08-17T18:48:30.766Z,20.8
2022-08-17T18:50:30.790Z,20.9
2022-08-17T18:52:30.766Z,20.8
2022-08-17T18:54:30.785Z,20.9
2022-08-17T18:56:31.215Z,21.1
2022-08-17T18:58:30.814Z,21.3
2022-08-17T19:00:30.783Z,21.4
2022-08-17T19:02:44.657Z,21.4
2022-08-17T19:04:34.729Z,21.0
2022-08-17T19:06:30.803Z,21.1
2022-08-17T19:08:30.800Z,21.0
2022-08-17T19:10:30.786Z,20.9
2022-08-17T19:12:30.789Z,21.0
2022-08-17T19:14:31.105Z,21.0
2022-08-17T19:16:30.807Z,21.2
2022-08-17T19:18:30.804Z,21.1
2022-08-17T19:20:30.960Z,21.1
2022-08-17T19:22:31.171Z,21.2
2022-08-17T19:24:30.808Z,21.1
2022-08-17T19:26:53.513Z,21.0
2022-08-17T19:28:30.802Z,20.6
2022-08-17T19:30:30.813Z,20.5
2022-08-17T19:32:30.789Z,20.5
2022-08-17T19:34:34.112Z,20.4
2022-08-17T19:36:30.827Z,20.3
2022-08-17T19:38:30.833Z,20.4
2022-08-17T19:40:51.683Z,20.1
2022-08-17T19:42:30.810Z,19.9
2022-08-17T19:44:30.836Z,20.1
2022-08-17T19:46:30.898Z,19.8
2022-08-17T19:48:30.835Z,20.2
2022-08-17T19:51:00.830Z,19.9
2022-08-17T19:53:00.831Z,20.1
2022-08-17T19:55:00.819Z,20.0
2022-08-17T19:57:01.688Z,19.8
2022-08-17T19:59:00.920Z,19.5
2022-08-17T20:01:00.993Z,19.6
2022-08-17T20:03:05.880Z,19.4
2022-08-17T20:05:00.914Z,19.5
2022-08-17T20:07:00.831Z,19.3
2022-08-17T20:09:00.917Z,19.5
2022-08-17T20:11:00.854Z,19.5
2022-08-17T20:13:00.833Z,19.5
2022-08-17T20:15:00.914Z,19.3
2022-08-17T20:17:02.913Z,19.1
2022-08-17T20:19:00.851Z,19.2
2022-08-17T20:21:00.943Z,19.3
2022-08-17T20:23:00.871Z,19.5
2022-08-17T20:25:00.931Z,19.7
2022-08-17T20:27:00.926Z,20.0
2022-08-17T20:29:00.855Z,19.9
2022-08-17T20:31:00.842Z,20.0
2022-08-17T20:33:00.849Z,19.6
2022-08-17T20:35:00.913Z,19.6
2022-08-17T20:37:00.928Z,19.5
2022-08-17T20:41:00.853Z,19.6
2022-08-17T20:42:44.606Z,19.6
2022-08-17T20:44:44.639Z,19.5
2022-08-17T20:47:14.631Z,19.3
2022-08-17T20:49:14.999Z,19.3
2022-08-17T20:51:14.578Z,19.3
2022-08-17T20:53:14.970Z,19.3
2022-08-17T20:55:14.679Z,19.2
2022-08-17T20:57:14.620Z,19.4
2022-08-17T20:59:14.648Z,19.5
2022-08-17T21:01:14.666Z,19.8
2022-08-17T21:03:14.626Z,20.0
2022-08-17T21:05:14.614Z,20.0
2022-08-17T21:07:14.625Z,20.0
2022-08-17T21:09:14.760Z,19.9
2022-08-17T21:11:14.627Z,19.8
2022-08-17T21:13:15.701Z,20.0
2022-08-17T21:15:14.620Z,20.2
2022-08-17T21:17:14.619Z,20.5
2022-08-17T21:19:16.894Z,20.5
2022-08-17T21:21:17.397Z,20.0
2022-08-17T21:23:14.639Z,19.9
2022-08-17T21:25:14.692Z,20.1
2022-08-17T21:27:14.618Z,20.2
2022-08-17T21:29:32.063Z,20.5
2022-08-17T21:31:14.652Z,20.3
2022-08-17T21:33:14.639Z,20.5
2022-08-17T21:35:14.660Z,20.5
2022-08-17T21:37:14.694Z,20.6
2022-08-17T21:39:14.630Z,20.5
2022-08-17T21:41:14.648Z,20.7
2022-08-17T21:43:14.648Z,21.0
2022-08-17T21:45:14.732Z,21.1
2022-08-17T21:47:14.638Z,21.4
2022-08-17T21:49:14.698Z,21.4
2022-08-17T21:51:14.647Z,21.6
2022-08-17T21:53:14.660Z,21.5
2022-08-17T21:55:14.756Z,21.5
2022-08-17T21:57:14.642Z,21.4
2022-08-17T21:59:14.662Z,21.5
2022-08-17T22:01:16.730Z,21.2
2022-08-17T22:03:14.672Z,21.1
2022-08-17T22:05:14.655Z,20.9
2022-08-17T22:07:14.666Z,20.9
2022-08-17T22:09:14.754Z,20.8
2022-08-17T22:11:14.735Z,20.9
2022-08-17T22:13:16.296Z,20.6
2022-08-17T22:15:14.679Z,20.5
2022-08-17T22:17:14.660Z,20.6
2022-08-17T22:19:14.673Z,20.6
2022-08-17T22:21:14.698Z,20.9
2022-08-17T22:23:14.706Z,20.8
2022-08-17T22:25:14.803Z,20.5
2022-08-17T22:27:14.756Z,20.7
2022-08-17T22:29:14.691Z,20.7
2022-08-17T22:31:14.866Z,20.8
2022-08-17T22:33:14.674Z,20.8
2022-08-17T22:35:14.707Z,21.0
2022-08-17T22:37:14.684Z,20.8
2022-08-17T22:39:14.708Z,20.9
2022-08-17T22:41:14.692Z,20.6
2022-08-17T22:43:14.846Z,20.4
2022-08-17T22:45:14.686Z,20.4
2022-08-17T22:47:44.782Z,20.3
2022-08-17T22:49:53.132Z,20.4
2022-08-17T22:51:44.697Z,20.1
2022-08-17T22:53:44.731Z,20.0
2022-08-17T22:55:45.757Z,20.3
2022-08-17T22:57:44.755Z,20.2
2022-08-17T22:59:44.724Z,20.3
2022-08-17T23:01:44.731Z,20.2
2022-08-17T23:03:44.760Z,20.3
2022-08-17T23:05:44.766Z,20.6
2022-08-17T23:07:44.744Z,20.8
2022-08-17T23:09:44.725Z,20.6
2022-08-17T23:11:49.143Z,20.5
2022-08-17T23:13:45.029Z,20.7
2022-08-17T23:15:44.718Z,20.6
2022-08-17T23:17:45.482Z,20.7
2022-08-17T23:19:44.745Z,20.7
2022-08-17T23:21:44.742Z,20.8
2022-08-17T23:23:44.727Z,21.0
2022-08-17T23:25:44.722Z,21.0
2022-08-17T23:27:44.763Z,20.6
2022-08-17T23:29:44.757Z,20.5
2022-08-17T23:31:44.733Z,20.7
2022-08-17T23:33:44.737Z,20.7
2022-08-17T23:35:45.862Z,20.6
2022-08-17T23:37:44.773Z,20.7
2022-08-17T23:39:44.824Z,20.6
2022-08-17T23:41:44.749Z,20.6
2022-08-17T23:43:44.714Z,20.6
2022-08-17T23:45:44.771Z,20.7
2022-08-17T23:47:44.760Z,20.7
2022-08-17T23:49:45.635Z,20.7
2022-08-17T23:51:45.744Z,20.9
2022-08-17T23:53:44.757Z,21.1
2022-08-17T23:55:45.829Z,21.3
2022-08-17T23:57:44.777Z,21.5
2022-08-17T23:59:44.784Z,21.3
